createdAt,value
2023-04-30T00:00:18.842Z,11.46
2023-04-30T00:01:19.086Z,11.41
2023-04-30T00:02:18.875Z,11.46
2023-04-30T00:03:19.009Z,11.38
2023-04-30T00:04:18.854Z,11.36
2023-04-30T00:05:18.800Z,11.35
2023-04-30T00:06:18.831Z,11.34
2023-04-30T00:07:18.762Z,11.29
2023-04-30T00:08:18.793Z,11.32
2023-04-30T00:09:18.742Z,11.27
2023-04-30T00:10:18.721Z,11.27
2023-04-30T00:11:18.724Z,11.28
2023-04-30T00:12:18.739Z,11.29
2023-04-30T00:13:18.692Z,11.27
2023-04-30T00:14:18.691Z,11.27
2023-04-30T00:15:18.673Z,11.25
2023-04-30T00:16:18.713Z,11.24
2023-04-30T00:17:18.651Z,11.24
2023-04-30T00:18:18.662Z,11.21
2023-04-30T00:19:18.627Z,11.25
2023-04-30T00:20:18.623Z,11.24
2023-04-30T00:21:18.623Z,11.13
2023-04-30T00:22:18.600Z,11.17
2023-04-30T00:23:18.596Z,11.14
2023-04-30T00:24:18.587Z,11.11
2023-04-30T00:25:18.565Z,11.14
2023-04-30T00:26:18.548Z,11.14
2023-04-30T00:27:18.539Z,11.13
2023-04-30T00:28:18.551Z,11.14
2023-04-30T00:29:18.531Z,11.19
2023-04-30T00:30:18.512Z,11.10
2023-04-30T00:31:18.505Z,11.14
2023-04-30T00:32:18.611Z,11.01
2023-04-30T00:33:18.474Z,11.01
2023-04-30T00:34:18.569Z,11.07
2023-04-30T00:35:18.455Z,11.02
2023-04-30T00:36:18.452Z,11.02
2023-04-30T00:37:18.616Z,10.92
2023-04-30T00:38:18.497Z,10.94
2023-04-30T00:39:18.460Z,10.99
2023-04-30T00:40:18.402Z,10.95
2023-04-30T00:41:18.437Z,10.91
2023-04-30T00:42:18.386Z,10.89
2023-04-30T00:43:18.412Z,10.94
2023-04-30T00:44:18.359Z,10.84
2023-04-30T00:45:18.347Z,10.98
2023-04-30T00:46:18.396Z,10.89
2023-04-30T00:47:18.345Z,10.99
2023-04-30T00:48:18.316Z,10.94
2023-04-30T00:49:18.322Z,10.86
2023-04-30T00:50:18.288Z,10.81
2023-04-30T00:51:18.290Z,10.81
2023-04-30T00:52:18.298Z,10.84
2023-04-30T00:53:18.279Z,10.86
2023-04-30T00:54:18.248Z,10.84
2023-04-30T00:55:18.235Z,10.89
2023-04-30T00:56:18.229Z,10.84
2023-04-30T00:57:18.240Z,10.86
2023-04-30T00:58:18.204Z,10.88
2023-04-30T00:59:18.194Z,10.86
2023-04-30T01:00:18.194Z,10.80
2023-04-30T01:01:18.212Z,10.74
2023-04-30T01:02:18.276Z,10.77
2023-04-30T01:03:18.226Z,10.77
2023-04-30T01:04:18.137Z,10.80
2023-04-30T01:05:18.126Z,10.80
2023-04-30T01:06:18.204Z,10.74
2023-04-30T01:07:18.123Z,10.77
2023-04-30T01:08:18.109Z,10.71
2023-04-30T01:09:18.100Z,10.66
2023-04-30T01:10:18.080Z,10.68
2023-04-30T01:11:18.070Z,10.63
2023-04-30T01:12:18.087Z,10.62
2023-04-30T01:13:18.036Z,10.60
2023-04-30T01:14:18.044Z,10.63
2023-04-30T01:15:18.019Z,10.63
2023-04-30T01:16:18.037Z,10.52
2023-04-30T01:17:18.023Z,10.39
2023-04-30T01:18:18.113Z,10.42
2023-04-30T01:19:17.977Z,10.42
2023-04-30T01:20:17.984Z,10.44
2023-04-30T01:21:17.950Z,10.32
2023-04-30T01:22:17.947Z,10.42
2023-04-30T01:23:17.955Z,10.37
2023-04-30T01:24:17.921Z,10.33
2023-04-30T01:25:17.933Z,10.18
2023-04-30T01:26:17.902Z,10.19
2023-04-30T01:27:17.901Z,10.18
2023-04-30T01:28:17.901Z,10.17
2023-04-30T01:29:17.868Z,10.15
2023-04-30T01:30:17.858Z,10.21
2023-04-30T01:31:17.875Z,10.18
2023-04-30T01:32:17.861Z,10.15
2023-04-30T01:33:17.838Z,10.15
2023-04-30T01:34:17.814Z,10.21
2023-04-30T01:35:17.807Z,10.21
2023-04-30T01:36:17.792Z,10.24
2023-04-30T01:37:17.814Z,10.24
2023-04-30T01:38:17.772Z,10.19
2023-04-30T01:39:17.796Z,10.19
2023-04-30T01:40:17.749Z,10.17
2023-04-30T01:41:18.293Z,10.28
2023-04-30T01:42:17.750Z,10.28
2023-04-30T01:43:17.727Z,10.22
2023-04-30T01:44:17.744Z,10.21
2023-04-30T01:45:17.714Z,10.21
2023-04-30T01:46:17.760Z,10.17
2023-04-30T01:47:17.681Z,10.10
2023-04-30T01:48:17.671Z,10.09
2023-04-30T01:49:17.713Z,10.06
2023-04-30T01:50:17.662Z,10.04
2023-04-30T01:51:17.639Z,9.99
2023-04-30T01:52:17.666Z,9.94
2023-04-30T01:53:17.620Z,9.96
2023-04-30T01:54:17.618Z,9.96
2023-04-30T01:55:17.592Z,9.99
2023-04-30T01:56:17.586Z,9.99
2023-04-30T01:57:17.600Z,10.01
2023-04-30T01:58:17.559Z,10.06
2023-04-30T01:59:17.557Z,10.01
2023-04-30T02:00:17.540Z,10.06
2023-04-30T02:01:17.578Z,10.09
2023-04-30T02:02:17.537Z,9.96
2023-04-30T02:03:17.561Z,9.93
2023-04-30T02:04:17.494Z,9.99
2023-04-30T02:05:17.484Z,9.97
2023-04-30T02:06:17.510Z,9.88
2023-04-30T02:07:17.507Z,9.82
2023-04-30T02:08:17.481Z,9.81
2023-04-30T02:09:17.449Z,9.79
2023-04-30T02:10:17.429Z,9.78
2023-04-30T02:11:17.414Z,9.76
2023-04-30T02:12:17.422Z,9.82
2023-04-30T02:13:17.416Z,9.76
2023-04-30T02:14:17.390Z,9.67
2023-04-30T02:15:17.370Z,9.68
2023-04-30T02:16:17.390Z,9.73
2023-04-30T02:17:17.380Z,9.81
2023-04-30T02:18:17.398Z,9.78
2023-04-30T02:19:17.354Z,9.79
2023-04-30T02:20:17.335Z,9.79
2023-04-30T02:21:17.309Z,9.67
2023-04-30T02:22:17.306Z,9.79
2023-04-30T02:23:17.285Z,9.64
2023-04-30T02:24:17.274Z,9.79
2023-04-30T02:25:17.263Z,9.79
2023-04-30T02:26:17.259Z,9.73
2023-04-30T02:27:17.271Z,9.79
2023-04-30T02:28:17.229Z,9.78
2023-04-30T02:29:17.403Z,9.75
2023-04-30T02:30:17.230Z,9.70
2023-04-30T02:31:17.214Z,9.75
2023-04-30T02:32:17.185Z,9.78
2023-04-30T02:33:17.172Z,9.82
2023-04-30T02:34:17.210Z,9.66
2023-04-30T02:35:17.149Z,9.75
2023-04-30T02:36:17.141Z,9.66
2023-04-30T02:37:17.160Z,9.68
2023-04-30T02:38:17.121Z,9.67
2023-04-30T02:39:17.138Z,9.63
2023-04-30T02:40:17.100Z,9.66
2023-04-30T02:41:17.090Z,9.66
2023-04-30T02:42:17.107Z,9.76
2023-04-30T02:43:17.064Z,9.64
2023-04-30T02:44:17.050Z,9.68
2023-04-30T02:45:17.052Z,9.58
2023-04-30T02:46:17.066Z,9.60
2023-04-30T02:47:17.048Z,9.42
2023-04-30T02:48:17.007Z,9.48
2023-04-30T02:49:17.000Z,9.40
2023-04-30T02:50:16.986Z,9.39
2023-04-30T02:51:16.978Z,9.35
2023-04-30T02:52:17.025Z,9.40
2023-04-30T02:53:16.951Z,9.35
2023-04-30T02:54:16.976Z,9.32
2023-04-30T02:55:16.942Z,9.42
2023-04-30T02:56:16.932Z,9.42
2023-04-30T02:57:16.934Z,9.43
2023-04-30T02:58:16.904Z,9.38
2023-04-30T02:59:16.887Z,9.39
2023-04-30T03:00:16.876Z,9.43
2023-04-30T03:01:16.924Z,9.30
2023-04-30T03:02:16.903Z,9.30
2023-04-30T03:03:16.945Z,9.27
2023-04-30T03:04:16.834Z,9.32
2023-04-30T03:05:16.823Z,9.27
2023-04-30T03:06:16.835Z,9.28
2023-04-30T03:07:16.804Z,9.25
2023-04-30T03:08:16.803Z,9.21
2023-04-30T03:09:16.781Z,9.24
2023-04-30T03:10:16.774Z,9.21
2023-04-30T03:11:16.759Z,9.27
2023-04-30T03:12:16.747Z,9.24
2023-04-30T03:13:16.755Z,9.18
2023-04-30T03:14:16.735Z,9.27
2023-04-30T03:15:16.722Z,9.21
2023-04-30T03:16:16.761Z,9.20
2023-04-30T03:17:24.523Z,9.09
2023-04-30T03:18:16.735Z,8.94
2023-04-30T03:19:16.707Z,8.83
2023-04-30T03:20:16.665Z,8.84
2023-04-30T03:21:16.654Z,8.86
2023-04-30T03:22:16.671Z,8.86
2023-04-30T03:23:16.630Z,8.86
2023-04-30T03:24:16.631Z,8.84
2023-04-30T03:25:16.621Z,8.81
2023-04-30T03:26:16.604Z,8.78
2023-04-30T03:27:16.591Z,8.79
2023-04-30T03:28:16.605Z,8.91
2023-04-30T03:29:16.569Z,8.94
2023-04-30T03:30:16.567Z,9.01
2023-04-30T03:31:16.555Z,8.79
2023-04-30T03:32:16.542Z,8.88
2023-04-30T03:33:16.585Z,8.87
2023-04-30T03:34:16.527Z,8.69
2023-04-30T03:35:16.526Z,8.66
2023-04-30T03:36:16.506Z,8.71
2023-04-30T03:37:16.485Z,8.66
2023-04-30T03:38:16.494Z,8.69
2023-04-30T03:39:16.461Z,8.71
2023-04-30T03:40:16.455Z,8.81
2023-04-30T03:41:16.447Z,8.68
2023-04-30T03:42:16.438Z,8.72
2023-04-30T03:43:16.435Z,8.83
2023-04-30T03:44:16.453Z,8.88
2023-04-30T03:45:16.399Z,8.91
2023-04-30T03:46:16.448Z,8.91
2023-04-30T03:47:16.382Z,8.90
2023-04-30T03:48:16.471Z,8.90
2023-04-30T03:49:16.376Z,8.97
2023-04-30T03:50:16.350Z,8.93
2023-04-30T03:51:16.346Z,8.86
2023-04-30T03:52:16.342Z,8.71
2023-04-30T03:53:16.314Z,8.55
2023-04-30T03:54:16.306Z,8.68
2023-04-30T03:55:16.293Z,8.69
2023-04-30T03:56:16.282Z,8.81
2023-04-30T03:57:16.303Z,8.78
2023-04-30T03:58:16.268Z,8.72
2023-04-30T03:59:16.252Z,8.81
2023-04-30T04:00:16.255Z,8.90
2023-04-30T04:01:16.233Z,8.91
2023-04-30T04:02:16.349Z,8.91
2023-04-30T04:03:16.276Z,8.90
2023-04-30T04:04:16.229Z,8.96
2023-04-30T04:05:16.218Z,9.02
2023-04-30T04:06:16.248Z,9.10
2023-04-30T04:07:16.167Z,9.06
2023-04-30T04:08:16.188Z,9.12
2023-04-30T04:09:16.169Z,9.10
2023-04-30T04:10:16.161Z,9.23
2023-04-30T04:11:16.131Z,9.32
2023-04-30T04:12:16.118Z,9.24
2023-04-30T04:13:16.103Z,9.28
2023-04-30T04:14:16.118Z,9.43
2023-04-30T04:15:16.081Z,9.50
2023-04-30T04:16:16.085Z,9.49
2023-04-30T04:17:16.061Z,9.56
2023-04-30T04:18:16.050Z,9.45
2023-04-30T04:19:16.107Z,9.53
2023-04-30T04:20:16.038Z,9.53
2023-04-30T04:21:16.037Z,9.63
2023-04-30T04:22:16.012Z,9.63
2023-04-30T04:23:16.021Z,9.70
2023-04-30T04:24:15.985Z,9.82
2023-04-30T04:25:15.979Z,9.79
2023-04-30T04:26:15.974Z,9.93
2023-04-30T04:27:15.958Z,9.94
2023-04-30T04:28:15.985Z,9.96
2023-04-30T04:29:15.939Z,10.07
2023-04-30T04:30:15.921Z,10.19
2023-04-30T04:31:15.943Z,10.22
2023-04-30T04:32:15.923Z,10.34
2023-04-30T04:33:15.928Z,10.36
2023-04-30T04:34:15.872Z,10.42
2023-04-30T04:35:15.863Z,10.53
2023-04-30T04:36:15.857Z,10.56
2023-04-30T04:37:15.861Z,10.55
2023-04-30T04:38:15.859Z,10.60
2023-04-30T04:39:15.827Z,10.62
2023-04-30T04:40:15.807Z,10.68
2023-04-30T04:41:15.801Z,10.84
2023-04-30T04:42:15.790Z,10.74
2023-04-30T04:43:15.792Z,10.83
2023-04-30T04:44:15.778Z,10.84
2023-04-30T04:45:15.774Z,10.94
2023-04-30T04:46:15.799Z,10.89
2023-04-30T04:47:15.736Z,10.92
2023-04-30T04:48:15.743Z,11.13
2023-04-30T04:49:15.713Z,11.16
2023-04-30T04:50:15.697Z,11.11
2023-04-30T04:51:15.700Z,11.25
2023-04-30T04:52:15.681Z,11.27
2023-04-30T04:53:15.789Z,11.25
2023-04-30T04:54:15.653Z,11.28
2023-04-30T04:55:15.641Z,11.25
2023-04-30T04:56:15.632Z,11.16
2023-04-30T04:57:15.635Z,11.14
2023-04-30T04:58:15.633Z,11.19
2023-04-30T04:59:15.601Z,11.24
2023-04-30T05:00:15.591Z,11.24
2023-04-30T05:01:15.629Z,11.29
2023-04-30T05:02:15.566Z,11.32
2023-04-30T05:03:15.683Z,11.24
2023-04-30T05:04:15.548Z,11.36
2023-04-30T05:05:15.546Z,11.46
2023-04-30T05:06:15.626Z,11.44
2023-04-30T05:07:15.517Z,11.46
2023-04-30T05:08:15.512Z,11.57
2023-04-30T05:09:15.516Z,11.62
2023-04-30T05:10:15.479Z,11.61
2023-04-30T05:11:15.930Z,11.59
2023-04-30T05:12:15.458Z,11.65
2023-04-30T05:13:15.475Z,11.64
2023-04-30T05:14:15.440Z,11.61
2023-04-30T05:15:15.429Z,11.54
2023-04-30T05:16:15.477Z,11.56
2023-04-30T05:17:15.411Z,11.61
2023-04-30T05:18:15.417Z,11.72
2023-04-30T05:19:15.405Z,11.77
2023-04-30T05:20:15.372Z,11.78
2023-04-30T05:21:15.366Z,11.99
2023-04-30T05:22:15.354Z,12.05
2023-04-30T05:23:15.370Z,12.21
2023-04-30T05:24:15.327Z,12.29
2023-04-30T05:25:15.339Z,12.41
2023-04-30T05:26:15.301Z,12.49
2023-04-30T05:27:15.303Z,12.64
2023-04-30T05:28:15.302Z,12.67
2023-04-30T05:29:15.289Z,12.42
2023-04-30T05:30:15.262Z,12.46
2023-04-30T05:31:15.257Z,12.54
2023-04-30T05:32:15.280Z,12.71
2023-04-30T05:33:15.291Z,12.82
2023-04-30T05:34:15.216Z,12.95
2023-04-30T05:35:15.210Z,13.04
2023-04-30T05:36:15.200Z,13.20
2023-04-30T05:37:15.193Z,13.29
2023-04-30T05:38:15.208Z,13.40
2023-04-30T05:39:15.169Z,13.56
2023-04-30T05:40:15.165Z,13.69
2023-04-30T05:41:15.268Z,13.67
2023-04-30T05:42:15.130Z,13.80
2023-04-30T05:43:15.152Z,13.95
2023-04-30T05:44:15.108Z,13.91
2023-04-30T05:45:15.098Z,14.04
2023-04-30T05:46:15.147Z,14.20
2023-04-30T05:47:15.083Z,14.20
2023-04-30T05:48:15.112Z,14.31
2023-04-30T05:49:15.055Z,14.38
2023-04-30T05:50:15.047Z,14.28
2023-04-30T05:51:15.043Z,14.24
2023-04-30T05:52:15.019Z,14.16
2023-04-30T05:53:15.074Z,14.04
2023-04-30T05:54:15.004Z,13.87
2023-04-30T05:55:14.995Z,13.79
2023-04-30T05:56:15.030Z,13.77
2023-04-30T05:57:14.993Z,13.74
2023-04-30T05:58:14.984Z,13.76
2023-04-30T05:59:14.957Z,13.77
2023-04-30T06:00:14.936Z,13.71
2023-04-30T06:01:14.932Z,13.79
2023-04-30T06:02:14.945Z,13.79
2023-04-30T06:03:14.981Z,13.69
2023-04-30T06:04:14.897Z,13.67
2023-04-30T06:05:16.195Z,13.80
2023-04-30T06:06:14.892Z,13.80
2023-04-30T06:07:14.860Z,13.92
2023-04-30T06:08:14.871Z,14.06
2023-04-30T06:09:14.848Z,14.12
2023-04-30T06:10:14.836Z,14.09
2023-04-30T06:11:14.818Z,13.91
2023-04-30T06:12:14.805Z,13.89
2023-04-30T06:13:14.954Z,13.70
2023-04-30T06:14:14.790Z,13.70
2023-04-30T06:15:14.789Z,13.63
2023-04-30T06:16:14.793Z,13.79
2023-04-30T06:17:14.753Z,13.70
2023-04-30T06:18:14.759Z,13.71
2023-04-30T06:19:14.731Z,13.83
2023-04-30T06:20:14.717Z,13.94
2023-04-30T06:21:14.729Z,13.98
2023-04-30T06:22:14.700Z,14.24
2023-04-30T06:23:14.715Z,14.46
2023-04-30T06:24:14.682Z,14.52
2023-04-30T06:25:14.681Z,14.61
2023-04-30T06:26:14.653Z,14.71
2023-04-30T06:27:14.653Z,14.68
2023-04-30T06:28:14.649Z,14.78
2023-04-30T06:29:14.720Z,14.78
2023-04-30T06:30:14.609Z,14.93
2023-04-30T06:31:14.641Z,15.11
2023-04-30T06:32:14.594Z,15.06
2023-04-30T06:33:14.594Z,15.26
2023-04-30T06:34:14.568Z,15.60
2023-04-30T06:35:14.562Z,15.61
2023-04-30T06:36:14.548Z,15.68
2023-04-30T06:37:14.540Z,15.70
2023-04-30T06:38:14.573Z,15.97
2023-04-30T06:39:14.518Z,15.99
2023-04-30T06:40:14.507Z,16.04
2023-04-30T06:41:14.493Z,16.26
2023-04-30T06:42:14.483Z,16.40
2023-04-30T06:43:14.485Z,16.44
2023-04-30T06:44:14.463Z,16.52
2023-04-30T06:45:14.474Z,16.58
2023-04-30T06:46:14.470Z,16.68
2023-04-30T06:47:14.494Z,16.77
2023-04-30T06:48:14.408Z,16.85
2023-04-30T06:49:14.413Z,16.96
2023-04-30T06:50:14.393Z,16.98
2023-04-30T06:51:14.387Z,17.06
2023-04-30T06:52:14.401Z,17.17
2023-04-30T06:53:14.364Z,17.18
2023-04-30T06:54:14.367Z,17.22
2023-04-30T06:55:14.347Z,17.22
2023-04-30T06:56:14.335Z,17.32
2023-04-30T06:57:14.351Z,17.41
2023-04-30T06:58:14.306Z,17.38
2023-04-30T06:59:14.299Z,17.62
2023-04-30T07:00:14.293Z,17.78
2023-04-30T07:01:14.313Z,18.13
2023-04-30T07:02:14.339Z,18.40
2023-04-30T07:03:14.403Z,18.61
2023-04-30T07:04:14.247Z,18.70
2023-04-30T07:05:14.237Z,18.95
2023-04-30T07:06:14.270Z,19.14
2023-04-30T07:07:14.221Z,19.25
2023-04-30T07:08:14.214Z,19.39
2023-04-30T07:09:14.191Z,19.51
2023-04-30T07:10:14.171Z,19.51
2023-04-30T07:11:14.168Z,19.63
2023-04-30T07:12:14.156Z,19.80
2023-04-30T07:13:14.183Z,20.00
2023-04-30T07:14:14.139Z,20.24
2023-04-30T07:15:14.124Z,20.31
2023-04-30T07:16:14.146Z,20.38
2023-04-30T07:17:14.229Z,20.27
2023-04-30T07:18:14.113Z,20.47
2023-04-30T07:19:14.089Z,20.54
2023-04-30T07:20:14.073Z,20.68
2023-04-30T07:21:14.061Z,20.87
2023-04-30T07:22:14.083Z,20.71
2023-04-30T07:23:14.052Z,20.81
2023-04-30T07:24:14.024Z,20.87
2023-04-30T07:25:14.016Z,20.93
2023-04-30T07:26:14.008Z,21.04
2023-04-30T07:27:13.997Z,20.96
2023-04-30T07:28:14.008Z,21.05
2023-04-30T07:29:13.971Z,21.04
2023-04-30T07:30:13.967Z,20.93
2023-04-30T07:31:13.992Z,20.95
2023-04-30T07:32:13.974Z,20.66
2023-04-30T07:33:14.025Z,20.86
2023-04-30T07:34:13.919Z,20.83
2023-04-30T07:35:13.908Z,21.09
2023-04-30T07:36:13.901Z,21.23
2023-04-30T07:37:13.908Z,21.20
2023-04-30T07:38:13.897Z,21.06
2023-04-30T07:39:13.870Z,20.72
2023-04-30T07:40:19.287Z,20.62
2023-04-30T07:41:14.849Z,20.59
2023-04-30T07:42:13.836Z,20.89
2023-04-30T07:43:13.842Z,21.01
2023-04-30T07:44:13.828Z,21.05
2023-04-30T07:45:13.812Z,21.17
2023-04-30T07:46:13.832Z,21.23
2023-04-30T07:47:13.788Z,21.32
2023-04-30T07:48:13.794Z,21.59
2023-04-30T07:49:13.782Z,21.60
2023-04-30T07:50:13.755Z,21.59
2023-04-30T07:51:13.744Z,21.76
2023-04-30T07:52:13.775Z,21.85
2023-04-30T07:53:13.747Z,21.79
2023-04-30T07:54:13.752Z,21.78
2023-04-30T07:55:13.721Z,21.78
2023-04-30T07:56:13.692Z,21.41
2023-04-30T07:57:13.698Z,21.38
2023-04-30T07:58:13.671Z,21.35
2023-04-30T07:59:13.666Z,21.44
2023-04-30T08:00:13.667Z,21.46
2023-04-30T08:01:13.642Z,21.41
2023-04-30T08:02:13.756Z,21.39
2023-04-30T08:03:13.818Z,21.66
2023-04-30T08:04:13.654Z,21.78
2023-04-30T08:05:13.616Z,22.01
2023-04-30T08:06:13.612Z,21.90
2023-04-30T08:07:13.596Z,21.97
2023-04-30T08:08:13.573Z,21.98
2023-04-30T08:09:13.575Z,22.29
2023-04-30T08:10:13.545Z,22.39
2023-04-30T08:11:13.569Z,22.39
2023-04-30T08:12:13.569Z,22.52
2023-04-30T08:13:13.519Z,22.71
2023-04-30T08:14:13.507Z,22.86
2023-04-30T08:15:13.502Z,23.09
2023-04-30T08:16:13.527Z,23.15
2023-04-30T08:17:13.529Z,23.24
2023-04-30T08:18:13.503Z,23.24
2023-04-30T08:19:13.459Z,23.22
2023-04-30T08:20:13.444Z,22.96
2023-04-30T08:21:13.453Z,22.93
2023-04-30T08:22:13.429Z,22.97
2023-04-30T08:23:13.439Z,23.05
2023-04-30T08:24:13.448Z,23.07
2023-04-30T08:25:13.411Z,23.20
2023-04-30T08:26:13.384Z,23.43
2023-04-30T08:27:13.376Z,23.38
2023-04-30T08:28:13.388Z,23.40
2023-04-30T08:29:13.380Z,23.23
2023-04-30T08:30:13.342Z,22.84
2023-04-30T08:31:13.353Z,22.80
2023-04-30T08:32:13.375Z,22.32
2023-04-30T08:33:13.379Z,22.46
2023-04-30T08:34:13.309Z,22.64
2023-04-30T08:35:13.349Z,22.64
2023-04-30T08:36:13.281Z,22.50
2023-04-30T08:37:13.289Z,22.74
2023-04-30T08:38:13.309Z,22.75
2023-04-30T08:39:13.305Z,22.84
2023-04-30T08:40:13.239Z,23.02
2023-04-30T08:41:13.259Z,23.45
2023-04-30T08:42:13.232Z,23.49
2023-04-30T08:43:13.224Z,23.43
2023-04-30T08:44:13.195Z,23.75
2023-04-30T08:45:13.185Z,23.76
2023-04-30T08:46:13.248Z,23.62
2023-04-30T08:47:13.257Z,23.68
2023-04-30T08:48:13.184Z,23.43
2023-04-30T08:49:13.162Z,23.08
2023-04-30T08:50:13.164Z,22.99
2023-04-30T08:51:13.125Z,23.15
2023-04-30T08:52:13.122Z,23.24
2023-04-30T08:53:13.120Z,23.32
2023-04-30T08:54:13.094Z,23.27
2023-04-30T08:55:13.092Z,23.27
2023-04-30T08:56:13.115Z,23.45
2023-04-30T08:57:13.076Z,23.46
2023-04-30T08:58:13.052Z,23.68
2023-04-30T08:59:13.041Z,23.79
2023-04-30T09:00:13.064Z,23.72
2023-04-30T09:01:13.039Z,23.70
2023-04-30T09:02:13.132Z,23.65
2023-04-30T09:03:13.076Z,23.83
2023-04-30T09:04:13.301Z,23.77
2023-04-30T09:05:12.977Z,23.85
2023-04-30T09:06:12.997Z,23.80
2023-04-30T09:07:12.978Z,23.64
2023-04-30T09:08:12.947Z,23.72
2023-04-30T09:09:12.955Z,23.58
2023-04-30T09:10:12.927Z,23.65
2023-04-30T09:11:12.921Z,23.77
2023-04-30T09:12:12.931Z,23.80
2023-04-30T09:13:12.913Z,24.05
2023-04-30T09:14:12.886Z,24.08
2023-04-30T09:15:12.878Z,24.10
2023-04-30T09:16:12.897Z,23.80
2023-04-30T09:17:20.029Z,23.43
2023-04-30T09:18:12.917Z,23.50
2023-04-30T09:19:12.844Z,23.60
2023-04-30T09:20:12.879Z,23.60
2023-04-30T09:21:12.817Z,23.50
2023-04-30T09:22:12.837Z,23.60
2023-04-30T09:23:12.793Z,23.72
2023-04-30T09:24:12.790Z,23.82
2023-04-30T09:25:12.797Z,23.87
2023-04-30T09:26:12.765Z,23.82
2023-04-30T09:27:12.840Z,23.82
2023-04-30T09:28:12.752Z,23.85
2023-04-30T09:29:12.745Z,23.94
2023-04-30T09:30:12.725Z,24.19
2023-04-30T09:31:12.733Z,24.41
2023-04-30T09:32:12.740Z,24.52
2023-04-30T09:33:12.744Z,24.12
2023-04-30T09:34:12.690Z,23.80
2023-04-30T09:35:12.679Z,23.61
2023-04-30T09:36:12.675Z,23.60
2023-04-30T09:37:12.707Z,23.72
2023-04-30T09:38:12.643Z,23.68
2023-04-30T09:39:14.889Z,23.35
2023-04-30T09:40:12.618Z,23.31
2023-04-30T09:41:12.625Z,23.42
2023-04-30T09:42:12.632Z,23.04
2023-04-30T09:43:12.588Z,22.93
2023-04-30T09:44:12.589Z,23.04
2023-04-30T09:45:12.576Z,23.32
2023-04-30T09:46:12.595Z,23.38
2023-04-30T09:47:12.758Z,23.47
2023-04-30T09:48:17.264Z,23.79
2023-04-30T09:49:13.533Z,23.64
2023-04-30T09:50:12.518Z,23.62
2023-04-30T09:51:12.608Z,23.62
2023-04-30T09:52:12.527Z,23.80
2023-04-30T09:53:12.508Z,23.87
2023-04-30T09:54:12.485Z,23.87
2023-04-30T09:55:12.477Z,23.60
2023-04-30T09:56:12.456Z,23.77
2023-04-30T09:57:13.224Z,23.76
2023-04-30T09:58:12.440Z,23.80
2023-04-30T09:59:12.430Z,23.46
2023-04-30T10:00:12.429Z,23.42
2023-04-30T10:01:12.426Z,23.38
2023-04-30T10:02:12.419Z,23.47
2023-04-30T10:03:12.492Z,23.12
2023-04-30T10:04:12.407Z,23.04
2023-04-30T10:05:12.372Z,23.08
2023-04-30T10:06:12.389Z,22.99
2023-04-30T10:07:14.831Z,23.14
2023-04-30T10:08:12.340Z,23.62
2023-04-30T10:09:12.335Z,23.71
2023-04-30T10:10:12.332Z,23.75
2023-04-30T10:11:12.306Z,23.90
2023-04-30T10:12:12.330Z,24.23
2023-04-30T10:13:12.398Z,24.22
2023-04-30T10:14:12.320Z,24.31
2023-04-30T10:15:12.301Z,24.54
2023-04-30T10:16:12.329Z,24.71
2023-04-30T10:17:12.266Z,24.73
2023-04-30T10:18:12.302Z,24.63
2023-04-30T10:19:12.327Z,24.34
2023-04-30T10:20:12.215Z,24.02
2023-04-30T10:21:12.284Z,23.68
2023-04-30T10:22:12.195Z,23.19
2023-04-30T10:23:12.240Z,22.32
2023-04-30T10:24:12.257Z,21.63
2023-04-30T10:25:12.161Z,21.02
2023-04-30T10:26:12.164Z,20.69
2023-04-30T10:27:12.162Z,20.46
2023-04-30T10:28:12.156Z,20.13
2023-04-30T10:29:12.145Z,19.90
2023-04-30T10:30:12.151Z,19.66
2023-04-30T10:31:12.118Z,19.43
2023-04-30T10:32:12.179Z,19.32
2023-04-30T10:33:13.592Z,19.24
2023-04-30T10:34:12.072Z,19.13
2023-04-30T10:35:12.118Z,18.90
2023-04-30T10:36:12.076Z,18.94
2023-04-30T10:37:12.084Z,18.84
2023-04-30T10:38:12.209Z,18.64
2023-04-30T10:39:12.032Z,18.50
2023-04-30T10:40:12.017Z,18.42
2023-04-30T10:41:11.998Z,18.49
2023-04-30T10:42:12.015Z,18.39
2023-04-30T10:43:11.999Z,18.25
2023-04-30T10:44:11.965Z,18.10
2023-04-30T10:45:11.974Z,17.85
2023-04-30T10:46:11.989Z,17.79
2023-04-30T10:47:11.932Z,17.57
2023-04-30T10:48:12.041Z,17.67
2023-04-30T10:49:11.921Z,17.62
2023-04-30T10:50:11.923Z,17.62
2023-04-30T10:51:11.910Z,17.66
2023-04-30T10:52:11.882Z,17.59
2023-04-30T10:53:11.881Z,17.59
2023-04-30T10:54:11.970Z,17.62
2023-04-30T10:55:11.860Z,17.47
2023-04-30T10:56:11.836Z,17.36
2023-04-30T10:57:11.823Z,17.32
2023-04-30T10:58:11.832Z,17.28
2023-04-30T10:59:11.804Z,17.29
2023-04-30T11:00:11.830Z,17.25
2023-04-30T11:01:11.839Z,17.28
2023-04-30T11:02:11.784Z,17.22
2023-04-30T11:03:11.830Z,17.14
2023-04-30T11:04:11.751Z,17.06
2023-04-30T11:05:11.943Z,17.08
2023-04-30T11:06:11.766Z,17.17
2023-04-30T11:07:11.767Z,17.17
2023-04-30T11:08:11.748Z,17.13
2023-04-30T11:09:11.695Z,17.14
2023-04-30T11:10:11.701Z,16.99
2023-04-30T11:11:11.690Z,16.98
2023-04-30T11:12:11.686Z,16.93
2023-04-30T11:13:11.659Z,16.95
2023-04-30T11:14:11.652Z,16.90
2023-04-30T11:15:11.644Z,16.73
2023-04-30T11:16:11.861Z,16.75
2023-04-30T11:17:11.740Z,16.80
2023-04-30T11:18:11.675Z,16.92
2023-04-30T11:19:11.873Z,16.98
2023-04-30T11:20:11.691Z,17.06
2023-04-30T11:21:11.571Z,17.08
2023-04-30T11:22:11.596Z,17.08
2023-04-30T11:23:11.546Z,16.95
2023-04-30T11:24:11.569Z,16.80
2023-04-30T11:25:11.528Z,16.73
2023-04-30T11:26:11.552Z,16.80
2023-04-30T11:27:11.515Z,16.67
2023-04-30T11:28:11.515Z,16.56
2023-04-30T11:29:11.637Z,16.50
2023-04-30T11:30:11.548Z,16.49
2023-04-30T11:31:13.019Z,16.38
2023-04-30T11:32:11.474Z,16.30
2023-04-30T11:33:11.458Z,16.31
2023-04-30T11:34:11.453Z,16.25
2023-04-30T11:35:11.419Z,16.15
2023-04-30T11:36:11.408Z,16.25
2023-04-30T11:37:11.424Z,16.25
2023-04-30T11:38:11.390Z,16.37
2023-04-30T11:39:11.372Z,16.34
2023-04-30T11:40:11.467Z,16.41
2023-04-30T11:41:11.355Z,16.34
2023-04-30T11:42:11.377Z,16.44
2023-04-30T11:43:11.329Z,16.49
2023-04-30T11:44:11.320Z,16.45
2023-04-30T11:45:11.310Z,16.53
2023-04-30T11:46:11.439Z,16.45
2023-04-30T11:47:11.350Z,16.59
2023-04-30T11:48:11.300Z,16.55
2023-04-30T11:49:11.290Z,16.62
2023-04-30T11:50:11.264Z,16.60
2023-04-30T11:51:11.242Z,16.67
2023-04-30T11:52:11.250Z,16.55
2023-04-30T11:53:11.243Z,16.52
2023-04-30T11:54:11.215Z,16.44
2023-04-30T11:55:11.205Z,16.34
2023-04-30T11:56:11.189Z,16.40
2023-04-30T11:57:11.207Z,16.37
2023-04-30T11:58:11.176Z,16.35
2023-04-30T11:59:11.208Z,16.30
2023-04-30T12:00:11.157Z,16.35
2023-04-30T12:01:11.142Z,16.31
2023-04-30T12:02:13.558Z,16.37
2023-04-30T12:03:11.236Z,16.27
2023-04-30T12:04:11.290Z,16.31
2023-04-30T12:05:11.112Z,16.23
2023-04-30T12:06:11.129Z,16.22
2023-04-30T12:07:11.126Z,16.27
2023-04-30T12:08:11.069Z,16.23
2023-04-30T12:09:11.076Z,16.34
2023-04-30T12:10:11.048Z,16.34
2023-04-30T12:11:11.032Z,16.40
2023-04-30T12:12:11.035Z,16.45
2023-04-30T12:13:11.023Z,16.44
2023-04-30T12:14:11.023Z,16.49
2023-04-30T12:15:10.985Z,16.52
2023-04-30T12:16:11.014Z,16.55
2023-04-30T12:17:10.974Z,16.59
2023-04-30T12:18:11.011Z,16.56
2023-04-30T12:19:10.938Z,16.48
2023-04-30T12:20:10.930Z,16.37
2023-04-30T12:21:10.942Z,16.35
2023-04-30T12:22:10.928Z,16.22
2023-04-30T12:23:10.902Z,16.23
2023-04-30T12:24:10.886Z,16.34
2023-04-30T12:25:10.875Z,16.27
2023-04-30T12:26:10.868Z,16.37
2023-04-30T12:27:10.908Z,16.37
2023-04-30T12:28:10.851Z,16.41
2023-04-30T12:29:12.678Z,16.34
2023-04-30T12:30:10.822Z,16.35
2023-04-30T12:31:10.862Z,16.33
2023-04-30T12:32:10.894Z,16.34
2023-04-30T12:33:10.857Z,16.27
2023-04-30T12:34:10.777Z,16.22
2023-04-30T12:35:10.853Z,16.23
2023-04-30T12:36:10.758Z,16.12
2023-04-30T12:37:10.826Z,16.16
2023-04-30T12:38:10.747Z,16.07
2023-04-30T12:39:10.724Z,16.12
2023-04-30T12:40:10.715Z,16.11
2023-04-30T12:41:10.703Z,16.14
2023-04-30T12:42:10.712Z,16.20
2023-04-30T12:43:10.679Z,16.16
2023-04-30T12:44:10.678Z,16.15
2023-04-30T12:45:10.678Z,16.15
2023-04-30T12:46:10.663Z,16.09
2023-04-30T12:47:10.701Z,16.11
2023-04-30T12:48:10.692Z,16.03
2023-04-30T12:49:10.615Z,16.07
2023-04-30T12:50:10.605Z,16.03
2023-04-30T12:51:10.622Z,16.04
2023-04-30T12:52:10.601Z,16.12
2023-04-30T12:53:10.597Z,16.06
2023-04-30T12:54:10.561Z,16.12
2023-04-30T12:55:10.548Z,16.20
2023-04-30T12:56:10.548Z,16.20
2023-04-30T12:57:10.588Z,16.16